Heinz Schepers — V2OM7 — position and weather

sailwx.info

Track history (hours):
 
Tides and Currents Weather Stations Pressure Air Temp Water Temp Dewpoint Dewpoint Depression Visibility Wind Speed Wind Dir Waves Ship Positions

Heinz Schepers

Last reported at 2016-Dec-03 23:32 UTC. Time now 2016-Dec-03 23:49 UTC.
Position N 36°00' E 014°24'.

Length 101 m; draft 6.2 m.

Type: Cargo ship. MMSI: 304596000.

Date/timePositionNaut miles runAvg speedWind from/ knotsBaromVisibWave heightAir tempDewpointWater temp
2016-Dec-03 23:32N 36°00' E 014°24'0 0.1
2016-Dec-03 22:29N 36°01' E 014°24'0 0.0
2016-Dec-03 21:32N 36°01' E 014°24'0 0.0
2016-Dec-03 20:31N 36°01' E 014°24'0 0.0
2016-Dec-03 19:31N 36°01' E 014°24'0 0.0
2016-Dec-03 18:31N 36°01' E 014°24'0 0.0
2016-Dec-03 17:28N 36°01' E 014°24'0 0.0
2016-Dec-03 16:31N 36°01' E 014°24'0 0.0
2016-Dec-03 15:31N 36°01' E 014°24'0 0.1
2016-Dec-03 14:31N 36°00' E 014°24'0 0.1
2016-Dec-03 13:31N 36°00' E 014°24'3 2.6
2016-Dec-03 12:33N 36°03' E 014°24'1010.4
2016-Dec-03 11:33N 36°10' E 014°14'1110.7
2016-Dec-03 10:33N 36°17' E 014°04'1010.5
2016-Dec-03 09:33N 36°23' E 013°53'1010.4
2016-Dec-03 08:33N 36°29' E 013°43'119 8.9
2016-Dec-02 19:07N 38°05' E 012°13'610.4
2016-Dec-02 18:33N 38°04' E 012°20'8 8.4
2016-Dec-02 17:33N 38°01' E 012°30'1 0.8
2016-Dec-02 16:28N 38°01' E 012°31'0 0.0
2016-Dec-02 15:28N 38°01' E 012°31'0 0.0
2016-Dec-02 14:28N 38°01' E 012°31'0 0.0
2016-Dec-02 13:16N 38°01' E 012°31'0 0.0
2016-Dec-02 12:31N 38°01' E 012°31'0 0.0
2016-Dec-02 11:31N 38°01' E 012°31'0 0.0
2016-Dec-02 10:31N 38°01' E 012°31'0 0.0
2016-Dec-02 09:31N 38°01' E 012°31'1 0.9
2016-Dec-02 08:33N 38°01' E 012°30'8 8.5
2016-Dec-02 07:33N 38°04' E 012°20'146 9.1
2016-Dec-01 15:29N 38°60' E 009°28'1010.5
2016-Dec-01 14:33N 39°03' E 009°16'10 9.8
2016-Dec-01 13:32N 39°09' E 009°05'5 4.5
2016-Dec-01 12:31N 39°13' E 009°04'0 0.0
2016-Dec-01 11:31N 39°13' E 009°04'0 0.0
2016-Dec-01 10:31N 39°13' E 009°04'0 0.0
2016-Dec-01 09:31N 39°13' E 009°04'0 0.0
2016-Dec-01 08:31N 39°13' E 009°04'0 0.0
2016-Dec-01 07:31N 39°13' E 009°04'0 0.0
2016-Dec-01 06:31N 39°13' E 009°04'0 0.0
2016-Dec-01 05:31N 39°13' E 009°04'0 0.0
2016-Dec-01 04:31N 39°13' E 009°04'0 0.0
2016-Dec-01 03:31N 39°13' E 009°04'0 0.0
2016-Dec-01 02:31N 39°13' E 009°04'0 0.0
2016-Dec-01 01:31N 39°13' E 009°04'0 0.0
2016-Dec-01 00:31N 39°13' E 009°04'0 0.0
2016-Nov-30 23:31N 39°13' E 009°04'0 0.0
2016-Nov-30 22:31N 39°13' E 009°04'0 0.0
2016-Nov-30 21:31N 39°13' E 009°04'0 0.0
2016-Nov-30 20:31N 39°13' E 009°04'0 0.0
2016-Nov-30 19:31N 39°13' E 009°04'0 0.0
2016-Nov-30 18:31N 39°13' E 009°04'0 0.0
2016-Nov-30 17:31N 39°13' E 009°04'0 0.0
2016-Nov-30 16:31N 39°13' E 009°04'0 0.0
2016-Nov-30 15:31N 39°13' E 009°04'0 0.0
2016-Nov-30 14:31N 39°13' E 009°04'0 0.0
2016-Nov-30 13:31N 39°13' E 009°04'0 0.0
2016-Nov-30 12:31N 39°13' E 009°04'0 0.0
2016-Nov-30 11:31N 39°13' E 009°04'0 0.0
2016-Nov-30 10:31N 39°13' E 009°04'0 0.0
2016-Nov-30 09:31N 39°13' E 009°04'0 0.0
2016-Nov-30 08:34N 39°13' E 009°04'0 0.0
2016-Nov-30 07:33N 39°13' E 009°04'0 0.0
2016-Nov-30 06:33N 39°13' E 009°04'0 0.0
2016-Nov-30 05:33N 39°13' E 009°04'0 0.0
2016-Nov-30 04:33N 39°13' E 009°04'0 0.0
2016-Nov-30 03:33N 39°13' E 009°04'0 0.0
2016-Nov-30 02:33N 39°13' E 009°04'0 0.0
2016-Nov-30 01:33N 39°13' E 009°04'0 0.0
2016-Nov-30 00:33N 39°13' E 009°04'0 0.0
2016-Nov-29 23:33N 39°13' E 009°04'0 0.0
2016-Nov-29 22:33N 39°13' E 009°04'0 0.0
2016-Nov-29 21:33N 39°13' E 009°04'0 0.0
2016-Nov-29 20:30N 39°13' E 009°04'0 0.0
2016-Nov-29 19:33N 39°13' E 009°04'0 0.0
2016-Nov-29 18:33N 39°13' E 009°04'0 0.0
2016-Nov-29 17:33N 39°13' E 009°04'4 3.6
2016-Nov-29 16:33N 39°10' E 009°06'9 9.0
2016-Nov-29 15:33N 39°02' E 009°11'1010.0
2016-Nov-29 14:33N 38°53' E 009°17'  
2016-Nov-25 19:32N 38°43' E 009°19'1110.8
2016-Nov-25 18:33N 38°53' E 009°15'1010.5
2016-Nov-25 17:33N 39°03' E 009°08'10 9.6
2016-Nov-25 16:33N 39°12' E 009°05'1 1.4
2016-Nov-25 15:32N 39°13' E 009°04'0 0.0
2016-Nov-25 14:32N 39°13' E 009°04'0 0.0
2016-Nov-25 13:32N 39°13' E 009°04'0 0.0
2016-Nov-25 12:32N 39°13' E 009°04'0 0.0
2016-Nov-25 11:32N 39°13' E 009°04'0 0.0
2016-Nov-25 10:32N 39°13' E 009°04'0 0.0
2016-Nov-25 09:32N 39°13' E 009°04'0 0.0
2016-Nov-25 08:32N 39°13' E 009°04'0 0.0
2016-Nov-25 07:32N 39°13' E 009°04'0 0.0
2016-Nov-25 06:32N 39°13' E 009°04'0 0.0
2016-Nov-25 05:32N 39°13' E 009°04'0 0.0
2016-Nov-25 04:32N 39°13' E 009°04'0 0.0
2016-Nov-25 03:32N 39°13' E 009°04'0 0.0
2016-Nov-25 02:32N 39°13' E 009°04'0 0.0
2016-Nov-25 01:32N 39°13' E 009°04'0 0.0
2016-Nov-25 00:32N 39°13' E 009°04'0 0.0
2016-Nov-24 23:32N 39°13' E 009°04'0 0.0
2016-Nov-24 22:32N 39°13' E 009°04'0 0.0
2016-Nov-24 21:32N 39°13' E 009°04'0 0.0
2016-Nov-24 20:32N 39°13' E 009°04'0 0.0
2016-Nov-24 19:32N 39°13' E 009°04'0 0.0
2016-Nov-24 18:32N 39°13' E 009°04'0 0.0
2016-Nov-24 17:32N 39°13' E 009°04'0 0.0
2016-Nov-24 16:32N 39°13' E 009°04'0 0.0
2016-Nov-24 15:32N 39°13' E 009°04'0 0.0
2016-Nov-24 14:32N 39°13' E 009°04'0 0.0
2016-Nov-24 13:32N 39°13' E 009°04'0 0.0
2016-Nov-24 12:32N 39°13' E 009°04'0 0.0
2016-Nov-24 11:32N 39°13' E 009°04'1 0.5
2016-Nov-24 10:33N 39°13' E 009°04'8 7.6
2016-Nov-24 09:32N 39°07' E 009°11'1110.8
2016-Nov-24 08:33N 39°02' E 009°24'1310.5
2016-Nov-24 07:16N 38°56' E 009°39'  
Track history (hours):
 
Tides and Currents Weather Stations Pressure Air Temp Water Temp Dewpoint Dewpoint Depression Visibility Wind Speed Wind Dir Waves Ship Positions

Heinz Schepers

Last reported at 2016-Dec-03 23:32 UTC. Time now 2016-Dec-03 23:49 UTC.
Position N 36°00' E 014°24'.

Length 101 m; draft 6.2 m.

Type: Cargo ship. MMSI: 304596000.

Date/timePositionNaut miles runAvg speedWind from/ knotsBaromVisibWave heightAir tempDewpointWater temp
2016-Dec-03 23:32N 36°00' E 014°24'0 0.1
2016-Dec-03 22:29N 36°01' E 014°24'0 0.0
2016-Dec-03 21:32N 36°01' E 014°24'0 0.0
2016-Dec-03 20:31N 36°01' E 014°24'0 0.0
2016-Dec-03 19:31N 36°01' E 014°24'0 0.0
2016-Dec-03 18:31N 36°01' E 014°24'0 0.0
2016-Dec-03 17:28N 36°01' E 014°24'0 0.0
2016-Dec-03 16:31N 36°01' E 014°24'0 0.0
2016-Dec-03 15:31N 36°01' E 014°24'0 0.1
2016-Dec-03 14:31N 36°00' E 014°24'0 0.1
2016-Dec-03 13:31N 36°00' E 014°24'3 2.6
2016-Dec-03 12:33N 36°03' E 014°24'1010.4
2016-Dec-03 11:33N 36°10' E 014°14'1110.7
2016-Dec-03 10:33N 36°17' E 014°04'1010.5
2016-Dec-03 09:33N 36°23' E 013°53'1010.4
2016-Dec-03 08:33N 36°29' E 013°43'119 8.9
2016-Dec-02 19:07N 38°05' E 012°13'610.4
2016-Dec-02 18:33N 38°04' E 012°20'8 8.4
2016-Dec-02 17:33N 38°01' E 012°30'1 0.8
2016-Dec-02 16:28N 38°01' E 012°31'0 0.0
2016-Dec-02 15:28N 38°01' E 012°31'0 0.0
2016-Dec-02 14:28N 38°01' E 012°31'0 0.0
2016-Dec-02 13:16N 38°01' E 012°31'0 0.0
2016-Dec-02 12:31N 38°01' E 012°31'0 0.0
2016-Dec-02 11:31N 38°01' E 012°31'0 0.0
2016-Dec-02 10:31N 38°01' E 012°31'0 0.0
2016-Dec-02 09:31N 38°01' E 012°31'1 0.9
2016-Dec-02 08:33N 38°01' E 012°30'8 8.5
2016-Dec-02 07:33N 38°04' E 012°20'146 9.1
2016-Dec-01 15:29N 38°60' E 009°28'1010.5
2016-Dec-01 14:33N 39°03' E 009°16'10 9.8
2016-Dec-01 13:32N 39°09' E 009°05'5 4.5
2016-Dec-01 12:31N 39°13' E 009°04'0 0.0
2016-Dec-01 11:31N 39°13' E 009°04'0 0.0
2016-Dec-01 10:31N 39°13' E 009°04'0 0.0
2016-Dec-01 09:31N 39°13' E 009°04'0 0.0
2016-Dec-01 08:31N 39°13' E 009°04'0 0.0
2016-Dec-01 07:31N 39°13' E 009°04'0 0.0
2016-Dec-01 06:31N 39°13' E 009°04'0 0.0
2016-Dec-01 05:31N 39°13' E 009°04'0 0.0
2016-Dec-01 04:31N 39°13' E 009°04'0 0.0
2016-Dec-01 03:31N 39°13' E 009°04'0 0.0
2016-Dec-01 02:31N 39°13' E 009°04'0 0.0
2016-Dec-01 01:31N 39°13' E 009°04'0 0.0
2016-Dec-01 00:31N 39°13' E 009°04'0 0.0
2016-Nov-30 23:31N 39°13' E 009°04'0 0.0
2016-Nov-30 22:31N 39°13' E 009°04'0 0.0
2016-Nov-30 21:31N 39°13' E 009°04'0 0.0
2016-Nov-30 20:31N 39°13' E 009°04'0 0.0
2016-Nov-30 19:31N 39°13' E 009°04'0 0.0
2016-Nov-30 18:31N 39°13' E 009°04'0 0.0
2016-Nov-30 17:31N 39°13' E 009°04'0 0.0
2016-Nov-30 16:31N 39°13' E 009°04'0 0.0
2016-Nov-30 15:31N 39°13' E 009°04'0 0.0
2016-Nov-30 14:31N 39°13' E 009°04'0 0.0
2016-Nov-30 13:31N 39°13' E 009°04'0 0.0
2016-Nov-30 12:31N 39°13' E 009°04'0 0.0
2016-Nov-30 11:31N 39°13' E 009°04'0 0.0
2016-Nov-30 10:31N 39°13' E 009°04'0 0.0
2016-Nov-30 09:31N 39°13' E 009°04'0 0.0
2016-Nov-30 08:34N 39°13' E 009°04'0 0.0
2016-Nov-30 07:33N 39°13' E 009°04'0 0.0
2016-Nov-30 06:33N 39°13' E 009°04'0 0.0
2016-Nov-30 05:33N 39°13' E 009°04'0 0.0
2016-Nov-30 04:33N 39°13' E 009°04'0 0.0
2016-Nov-30 03:33N 39°13' E 009°04'0 0.0
2016-Nov-30 02:33N 39°13' E 009°04'0 0.0
2016-Nov-30 01:33N 39°13' E 009°04'0 0.0
2016-Nov-30 00:33N 39°13' E 009°04'0 0.0
2016-Nov-29 23:33N 39°13' E 009°04'0 0.0
2016-Nov-29 22:33N 39°13' E 009°04'0 0.0
2016-Nov-29 21:33N 39°13' E 009°04'0 0.0
2016-Nov-29 20:30N 39°13' E 009°04'0 0.0
2016-Nov-29 19:33N 39°13' E 009°04'0 0.0
2016-Nov-29 18:33N 39°13' E 009°04'0 0.0
2016-Nov-29 17:33N 39°13' E 009°04'4 3.6
2016-Nov-29 16:33N 39°10' E 009°06'9 9.0
2016-Nov-29 15:33N 39°02' E 009°11'1010.0
2016-Nov-29 14:33N 38°53' E 009°17'  
2016-Nov-25 19:32N 38°43' E 009°19'1110.8
2016-Nov-25 18:33N 38°53' E 009°15'1010.5
2016-Nov-25 17:33N 39°03' E 009°08'10 9.6
2016-Nov-25 16:33N 39°12' E 009°05'1 1.4
2016-Nov-25 15:32N 39°13' E 009°04'0 0.0
2016-Nov-25 14:32N 39°13' E 009°04'0 0.0
2016-Nov-25 13:32N 39°13' E 009°04'0 0.0
2016-Nov-25 12:32N 39°13' E 009°04'0 0.0
2016-Nov-25 11:32N 39°13' E 009°04'0 0.0
2016-Nov-25 10:32N 39°13' E 009°04'0 0.0
2016-Nov-25 09:32N 39°13' E 009°04'0 0.0
2016-Nov-25 08:32N 39°13' E 009°04'0 0.0
2016-Nov-25 07:32N 39°13' E 009°04'0 0.0
2016-Nov-25 06:32N 39°13' E 009°04'0 0.0
2016-Nov-25 05:32N 39°13' E 009°04'0 0.0
2016-Nov-25 04:32N 39°13' E 009°04'0 0.0
2016-Nov-25 03:32N 39°13' E 009°04'0 0.0
2016-Nov-25 02:32N 39°13' E 009°04'0 0.0
2016-Nov-25 01:32N 39°13' E 009°04'0 0.0
2016-Nov-25 00:32N 39°13' E 009°04'0 0.0
2016-Nov-24 23:32N 39°13' E 009°04'0 0.0
2016-Nov-24 22:32N 39°13' E 009°04'0 0.0
2016-Nov-24 21:32N 39°13' E 009°04'0 0.0
2016-Nov-24 20:32N 39°13' E 009°04'0 0.0
2016-Nov-24 19:32N 39°13' E 009°04'0 0.0
2016-Nov-24 18:32N 39°13' E 009°04'0 0.0
2016-Nov-24 17:32N 39°13' E 009°04'0 0.0
2016-Nov-24 16:32N 39°13' E 009°04'0 0.0
2016-Nov-24 15:32N 39°13' E 009°04'0 0.0
2016-Nov-24 14:32N 39°13' E 009°04'0 0.0
2016-Nov-24 13:32N 39°13' E 009°04'0 0.0
2016-Nov-24 12:32N 39°13' E 009°04'0 0.0
2016-Nov-24 11:32N 39°13' E 009°04'1 0.5
2016-Nov-24 10:33N 39°13' E 009°04'8 7.6
2016-Nov-24 09:32N 39°07' E 009°11'1110.8
2016-Nov-24 08:33N 39°02' E 009°24'1310.5
2016-Nov-24 07:16N 38°56' E 009°39'  

Dump ship's entire track history